Time;durP1;ratioP1;P1;durP2;ratioP2;P2;SDS_P1;SDS_P2;PMS_P1;PMS_P2;Temp;Humidity;BMP_temperature;BMP_pressure;BME280_temperature;BME280_humidity;BME280_pressure;Samples;Min_cycle;Max_cycle;Signal;HPM_P1;HPM_P2
2021/05/01 00:00:45;;;;;;;18.25;13.20;;;;;;;6.79;94.76;100659.56;3585369;39;20084;-57
2021/05/01 00:03:12;;;;;;;22.77;13.23;;;;;;;6.86;94.69;100658.16;3582121;39;20076;-54
2021/05/01 00:05:38;;;;;;;20.63;12.23;;;;;;;7.09;94.36;100656.53;3582996;39;20440;-52
2021/05/01 00:08:05;;;;;;;19.77;12.82;;;;;;;7.03;93.52;100658.84;3582854;39;20070;-55
2021/05/01 00:10:31;;;;;;;18.08;12.32;;;;;;;7.18;92.36;100656.00;3583328;39;20363;-51
2021/05/01 00:12:58;;;;;;;18.50;12.95;;;;;;;7.29;92.29;100653.06;3582766;39;20119;-52
2021/05/01 00:15:25;;;;;;;22.10;12.73;;;;;;;6.94;93.11;100653.38;3583601;39;20070;-51
2021/05/01 00:17:51;;;;;;;20.83;13.27;;;;;;;7.05;92.59;100662.28;3582921;39;20119;-54
2021/05/01 00:20:18;;;;;;;23.70;13.18;;;;;;;7.01;92.76;100652.81;3583129;39;20052;-52
2021/05/01 00:22:44;;;;;;;22.55;13.48;;;;;;;6.80;93.99;100653.69;3583127;39;20410;-54
2021/05/01 00:25:11;;;;;;;21.70;14.07;;;;;;;6.88;93.92;100649.75;3579979;39;20164;-51
2021/05/01 00:27:38;;;;;;;26.00;13.88;;;;;;;6.73;94.69;100648.28;3583063;39;20148;-53
2021/05/01 00:30:05;;;;;;;20.35;13.80;;;;;;;6.60;95.33;100650.31;3582733;39;20084;-51
2021/05/01 00:32:33;;;;;;;18.23;13.05;;;;;;;6.70;95.17;100645.63;3583172;39;20626;-53
2021/05/01 00:35:02;;;;;;;18.08;13.85;;;;;;;6.66;95.30;100644.66;3582155;39;20048;-54
2021/05/01 00:37:28;;;;;;;19.77;13.65;;;;;;;6.67;95.23;100646.38;3582688;39;20059;-53
2021/05/01 00:39:55;;;;;;;22.30;13.52;;;;;;;6.38;96.67;100648.59;3582900;39;20088;-54
2021/05/01 00:42:22;;;;;;;18.88;14.05;;;;;;;6.76;95.74;100646.75;3583014;39;20115;-51
2021/05/01 00:44:48;;;;;;;21.38;13.73;;;;;;;6.70;94.89;100643.97;3582764;39;20060;-52
2021/05/01 00:47:15;;;;;;;20.63;13.15;;;;;;;6.59;96.03;100652.81;3583036;39;20440;-53
2021/05/01 00:49:42;;;;;;;18.15;12.82;;;;;;;6.74;95.72;100644.94;3582956;39;20053;-51
2021/05/01 00:52:08;;;;;;;20.52;13.25;;;;;;;6.66;95.38;100643.78;3582666;39;20080;-50
2021/05/01 00:54:35;;;;;;;20.70;13.55;;;;;;;6.69;95.42;100636.25;3582549;39;20327;-51
2021/05/01 00:57:02;;;;;;;22.48;14.63;;;;;;;6.51;96.43;100647.41;3583077;39;20343;-51
2021/05/01 00:59:29;;;;;;;16.92;12.50;;;;;;;6.69;96.70;100646.44;3582777;39;20067;-54
2021/05/01 01:01:58;;;;;;;19.33;12.82;;;;;;;6.56;96.41;100656.13;3582904;39;20101;-55
2021/05/01 01:04:24;;;;;;;22.05;14.52;;;;;;;6.45;97.17;100659.88;3582856;39;20052;-50
2021/05/01 01:06:51;;;;;;;23.90;14.88;;;;;;;6.41;97.79;100646.97;3582951;39;20056;-54
2021/05/01 01:09:17;;;;;;;22.48;14.57;;;;;;;6.30;98.92;100655.03;3582871;39;20629;-54
2021/05/01 01:11:44;;;;;;;19.10;14.00;;;;;;;6.36;98.94;100644.22;3583081;39;20160;-50
2021/05/01 01:14:15;;;;;;;22.35;15.02;;;;;;;6.33;98.94;100647.53;3587489;39;20112;-52
2021/05/01 01:16:44;;;;;;;20.60;13.88;;;;;;;6.44;99.01;100642.03;3581887;39;20140;-52
2021/05/01 01:19:13;;;;;;;22.70;15.13;;;;;;;6.30;99.47;100637.22;3579450;39;20060;-51
2021/05/01 01:21:50;;;;;;;23.83;14.88;;;;;;;6.36;99.71;100642.56;3582671;39;20067;-52
2021/05/01 01:24:17;;;;;;;20.80;14.93;;;;;;;6.44;99.33;100647.09;3579618;39;20080;-51
2021/05/01 01:26:45;;;;;;;19.23;12.88;;;;;;;6.62;98.45;100642.78;3585545;39;20064;-49
2021/05/01 01:29:15;;;;;;;21.98;13.68;;;;;;;6.48;98.64;100644.75;3587216;39;20048;-54
2021/05/01 01:31:43;;;;;;;21.50;13.38;;;;;;;6.56;99.14;100647.59;3586031;39;20442;-53
2021/05/01 01:34:10;;;;;;;18.08;13.10;;;;;;;6.50;98.80;100647.34;3582596;39;20105;-53
2021/05/01 01:36:37;;;;;;;25.70;14.18;;;;;;;6.58;98.11;100638.38;3582382;39;20063;-51
2021/05/01 01:39:04;;;;;;;22.25;15.38;;;;;;;6.60;97.51;100652.88;3581922;39;20061;-52
2021/05/01 01:41:30;;;;;;;19.52;13.73;;;;;;;6.80;97.14;100650.28;3582574;39;20059;-50
2021/05/01 01:43:57;;;;;;;22.73;14.75;;;;;;;6.44;98.11;100649.66;3582360;39;20112;-52
2021/05/01 01:46:23;;;;;;;26.38;15.63;;;;;;;6.31;99.47;100651.66;3582832;39;20056;-54
2021/05/01 01:48:50;;;;;;;23.10;14.75;;;;;;;6.22;99.96;100643.66;3582375;39;20048;-50
2021/05/01 01:51:16;;;;;;;22.23;14.57;;;;;;;6.18;100.00;100640.91;3582526;39;20083;-56
2021/05/01 01:53:43;;;;;;;23.48;14.25;;;;;;;6.26;100.00;100640.44;3582596;39;20064;-52
2021/05/01 01:56:09;;;;;;;21.70;14.50;;;;;;;6.21;100.00;100644.47;3585560;39;20084;-55
2021/05/01 01:58:36;;;;;;;22.40;15.43;;;;;;;6.37;99.84;100641.75;3585820;39;20092;-54
2021/05/01 02:01:03;;;;;;;21.33;13.88;;;;;;;6.32;99.57;100638.16;3584741;39;20325;-54
2021/05/01 02:03:30;;;;;;;21.67;14.45;;;;;;;6.33;99.84;100636.47;3582479;39;20076;-54
2021/05/01 02:05:57;;;;;;;21.00;14.70;;;;;;;6.20;100.00;100636.78;3582289;39;20041;-53
2021/05/01 02:08:23;;;;;;;21.13;14.18;;;;;;;6.55;99.38;100630.59;3582164;39;20109;-50
2021/05/01 02:10:50;;;;;;;22.60;15.35;;;;;;;6.40;99.36;100643.56;3583287;39;20067;-53
2021/05/01 02:13:17;;;;;;;22.92;14.13;;;;;;;6.33;99.63;100634.81;3583932;39;21959;-52
2021/05/01 02:15:43;;;;;;;24.73;14.65;;;;;;;6.20;100.00;100640.19;3583816;39;20045;-51
2021/05/01 02:18:10;;;;;;;21.65;14.50;;;;;;;6.28;100.00;100645.59;3583796;39;20410;-51
2021/05/01 02:20:37;;;;;;;23.77;14.75;;;;;;;6.11;100.00;100644.88;3583649;39;20061;-50
2021/05/01 02:23:05;;;;;;;23.85;14.63;;;;;;;6.36;100.00;100649.31;3583231;39;20088;-49
2021/05/01 02:25:33;;;;;;;20.40;14.45;;;;;;;6.26;100.00;100645.53;3586585;39;20111;-54
2021/05/01 02:28:00;;;;;;;22.48;14.23;;;;;;;6.19;99.84;100645.19;3585227;39;20088;-51
2021/05/01 02:30:28;;;;;;;23.48;15.32;;;;;;;6.19;100.00;100645.19;3584250;39;20381;-52
2021/05/01 02:32:56;;;;;;;23.85;15.02;;;;;;;6.17;100.00;100651.91;3583921;39;20040;-51
2021/05/01 02:35:34;;;;;;;20.13;14.73;;;;;;;6.13;100.00;100654.31;3583724;39;20067;-51
2021/05/01 02:38:01;;;;;;;21.75;15.15;;;;;;;6.17;100.00;100651.91;3583421;39;20105;-50
2021/05/01 02:40:30;;;;;;;21.63;14.60;;;;;;;6.10;100.00;100640.59;3587085;39;20110;-49
2021/05/01 02:42:58;;;;;;;25.80;14.75;;;;;;;6.22;100.00;100637.72;3590078;39;20399;-50
2021/05/01 02:45:25;;;;;;;22.02;15.80;;;;;;;6.20;100.00;100637.66;3587812;39;20056;-53
2021/05/01 02:47:51;;;;;;;20.40;14.10;;;;;;;6.18;100.00;100630.75;3583773;39;20415;-53
2021/05/01 02:50:19;;;;;;;23.30;14.50;;;;;;;6.45;100.00;100619.19;3582721;39;20048;-54
2021/05/01 02:52:46;;;;;;;21.70;13.93;;;;;;;6.45;99.87;100624.28;3583584;39;20057;-53
2021/05/01 02:55:13;;;;;;;20.13;14.00;;;;;;;6.31;100.00;100625.38;3580342;39;20065;-50
2021/05/01 02:57:40;;;;;;;23.63;14.70;;;;;;;6.23;100.00;100626.72;3583410;39;20058;-50
2021/05/01 03:00:11;;;;;;;19.77;13.48;;;;;;;6.35;100.00;100622.16;3588856;39;20056;-55
2021/05/01 03:02:37;;;;;;;22.17;14.00;;;;;;;6.23;100.00;100624.19;3592586;39;20334;-56
2021/05/01 03:05:05;;;;;;;18.90;13.73;;;;;;;6.27;100.00;100616.75;3583939;39;20083;-54
2021/05/01 03:07:33;;;;;;;19.77;13.13;;;;;;;6.67;100.00;100612.44;3583549;39;20731;-53
2021/05/01 03:09:59;;;;;;;22.75;13.98;;;;;;;6.87;96.79;100609.84;3583419;39;20080;-53
2021/05/01 03:12:26;;;;;;;21.02;13.38;;;;;;;6.48;98.69;100604.06;3584320;39;20086;-56
2021/05/01 03:14:53;;;;;;;22.95;14.20;;;;;;;6.47;98.87;100609.06;3583846;39;20060;-54
2021/05/01 03:17:19;;;;;;;19.67;14.13;;;;;;;6.55;98.49;100606.03;3583846;39;20045;-52
2021/05/01 03:19:46;;;;;;;17.58;13.85;;;;;;;6.58;98.48;100602.75;3583182;39;20068;-52
2021/05/01 03:22:13;;;;;;;22.27;14.32;;;;;;;6.72;99.02;100596.53;3583208;39;20079;-51
2021/05/01 03:24:41;;;;;;;20.48;14.77;;;;;;;6.38;99.58;100599.41;3583808;39;20346;-52
2021/05/01 03:27:08;;;;;;;22.85;13.93;;;;;;;6.33;100.00;100589.03;3583754;39;20055;-52
2021/05/01 03:29:36;;;;;;;21.92;15.38;;;;;;;6.29;100.00;100602.44;3583770;39;20040;-51
2021/05/01 03:32:03;;;;;;;21.25;14.40;;;;;;;6.40;100.00;100599.47;3583806;39;20319;-50
2021/05/01 03:34:29;;;;;;;23.50;15.00;;;;;;;6.36;100.00;100593.38;3583532;39;20157;-52
2021/05/01 03:36:56;;;;;;;23.52;15.10;;;;;;;6.37;100.00;100593.44;3586507;39;20072;-57
2021/05/01 03:39:22;;;;;;;21.60;15.05;;;;;;;6.34;99.87;100593.31;3585791;39;20230;-51
2021/05/01 03:41:50;;;;;;;29.02;16.05;;;;;;;6.22;100.00;100592.81;3583558;39;20411;-53
2021/05/01 03:44:17;;;;;;;24.40;15.13;;;;;;;6.25;100.00;100594.63;3583843;39;20052;-50
2021/05/01 03:46:44;;;;;;;22.50;15.10;;;;;;;6.49;100.00;100595.63;3583499;39;20041;-54
2021/05/01 03:49:10;;;;;;;22.10;15.10;;;;;;;6.61;100.00;100596.13;3583202;39;20095;-56
2021/05/01 03:51:37;;;;;;;23.08;15.88;;;;;;;6.47;98.75;100594.69;3583404;39;20056;-52
2021/05/01 03:54:04;;;;;;;22.45;15.18;;;;;;;6.36;99.69;100601.88;3583357;39;20052;-52
2021/05/01 03:56:34;;;;;;;23.75;14.52;;;;;;;6.48;100.00;100605.75;3583188;39;20064;-57
2021/05/01 03:59:00;;;;;;;24.50;15.55;;;;;;;6.42;99.42;100603.78;3583082;39;20084;-49
2021/05/01 04:01:27;;;;;;;23.33;15.55;;;;;;;6.30;100.00;100608.38;3583476;39;20055;-52
2021/05/01 04:03:54;;;;;;;22.33;16.02;;;;;;;6.35;100.00;100610.31;3583255;39;20337;-54
2021/05/01 04:06:21;;;;;;;22.15;15.30;;;;;;;6.28;100.00;100613.38;3583300;39;20067;-51
2021/05/01 04:08:48;;;;;;;25.77;15.95;;;;;;;6.77;98.38;100610.31;3583081;39;20104;-49
2021/05/01 04:11:14;;;;;;;23.73;14.40;;;;;;;6.49;99.09;100610.88;3583442;39;20096;-50
2021/05/01 04:13:46;;;;;;;22.13;15.02;;;;;;;6.57;98.10;100611.19;3583354;39;20056;-53
2021/05/01 04:16:17;;;;;;;23.15;15.70;;;;;;;6.51;98.63;100606.72;3580720;39;20063;-51
2021/05/01 04:18:46;;;;;;;23.23;15.45;;;;;;;6.49;99.18;100604.91;3583278;39;20064;-51
2021/05/01 04:21:12;;;;;;;23.33;15.25;;;;;;;6.27;99.95;100609.13;3580316;39;20052;-51
2021/05/01 04:23:39;;;;;;;22.42;15.25;;;;;;;6.21;100.00;100611.41;3584630;39;20443;-56
2021/05/01 04:26:05;;;;;;;26.38;16.80;;;;;;;6.34;100.00;100616.22;3586138;39;20037;-55
2021/05/01 04:28:32;;;;;;;21.73;15.45;;;;;;;6.41;100.00;100608.81;3586134;39;20085;-54
2021/05/01 04:30:59;;;;;;;22.98;15.57;;;;;;;6.33;100.00;100609.41;3583383;39;20080;-54
2021/05/01 04:33:27;;;;;;;26.55;15.95;;;;;;;6.42;100.00;100608.00;3583341;39;20067;-52
2021/05/01 04:35:54;;;;;;;24.60;15.90;;;;;;;6.45;100.00;100611.56;3583226;39;20425;-55
2021/05/01 04:38:22;;;;;;;22.85;15.27;;;;;;;6.34;100.00;100618.75;3582928;39;20081;-53
2021/05/01 04:40:48;;;;;;;27.35;16.30;;;;;;;6.58;100.00;100611.25;3582908;39;20091;-55
2021/05/01 04:43:17;;;;;;;22.98;14.85;;;;;;;6.67;99.65;100617.53;3583034;39;20061;-53
2021/05/01 04:45:43;;;;;;;26.63;16.40;;;;;;;6.64;98.49;100623.34;3583349;39;20407;-56
2021/05/01 04:48:10;;;;;;;24.33;15.57;;;;;;;6.75;98.31;100626.31;3582744;39;20058;-55
2021/05/01 04:50:39;;;;;;;24.63;16.60;;;;;;;6.78;98.82;100622.22;3587816;39;20056;-55
2021/05/01 04:53:05;;;;;;;29.65;16.60;;;;;;;6.54;98.76;100624.66;3582568;39;20104;-52
2021/05/01 04:55:32;;;;;;;26.58;16.52;;;;;;;6.41;100.00;100626.63;3582855;39;20085;-53
2021/05/01 04:57:59;;;;;;;23.65;16.77;;;;;;;6.31;100.00;100623.69;3582435;39;20093;-52
2021/05/01 05:00:26;;;;;;;27.40;17.00;;;;;;;6.33;100.00;100624.66;3583197;39;20112;-50
2021/05/01 05:02:52;;;;;;;24.40;16.70;;;;;;;6.44;100.00;100627.63;3582800;39;20058;-52
2021/05/01 05:05:19;;;;;;;27.13;16.50;;;;;;;6.49;100.00;100635.44;3583055;39;20048;-54
2021/05/01 05:07:46;;;;;;;25.98;16.80;;;;;;;6.49;100.00;100632.91;3582607;39;20075;-52
2021/05/01 05:10:14;;;;;;;22.50;15.00;;;;;;;6.64;99.81;100628.44;3579724;39;20080;-55
2021/05/01 05:12:42;;;;;;;27.77;16.13;;;;;;;6.71;99.09;100634.66;3582858;39;20460;-53
2021/05/01 05:15:10;;;;;;;23.70;16.90;;;;;;;6.56;99.20;100642.50;3582988;39;20117;-51
2021/05/01 05:17:36;;;;;;;23.80;16.75;;;;;;;6.50;99.39;100638.03;3582628;39;20085;-51
2021/05/01 05:20:06;;;;;;;24.42;17.33;;;;;;;6.63;98.78;100636.88;3582600;39;20063;-54
2021/05/01 05:22:33;;;;;;;22.38;15.73;;;;;;;6.68;98.93;100644.69;3582838;39;20060;-53
2021/05/01 05:24:59;;;;;;;22.55;15.57;;;;;;;6.94;97.00;100648.28;3581744;39;20116;-55
2021/05/01 05:27:27;;;;;;;23.52;15.20;;;;;;;6.91;96.77;100637.97;3578752;39;20388;-50
2021/05/01 05:29:53;;;;;;;23.58;15.80;;;;;;;6.80;97.73;100633.34;3577818;39;20088;-52
2021/05/01 05:32:22;;;;;;;26.23;16.23;;;;;;;6.50;99.12;100638.03;3576875;39;20051;-53
2021/05/01 05:34:51;;;;;;;27.10;16.42;;;;;;;6.68;98.98;100634.53;3579919;39;20133;-52
2021/05/01 05:37:18;;;;;;;27.75;17.13;;;;;;;6.46;99.84;100638.72;3579019;39;20036;-50
2021/05/01 05:39:47;;;;;;;26.30;17.63;;;;;;;6.73;98.46;100638.09;3578729;39;20454;-49
2021/05/01 05:42:18;;;;;;;25.75;16.77;;;;;;;6.84;98.64;100635.19;3578698;39;20572;-52
2021/05/01 05:44:48;;;;;;;24.15;16.58;;;;;;;6.55;97.87;100650.94;3578257;39;20059;-51
2021/05/01 05:47:16;;;;;;;26.73;17.10;;;;;;;6.61;98.82;100646.13;3579992;39;20052;-51
2021/05/01 05:49:43;;;;;;;27.00;16.33;;;;;;;6.75;98.40;100641.56;3578800;39;20060;-49
2021/05/01 05:52:12;;;;;;;25.15;16.52;;;;;;;6.55;98.91;100653.50;3581216;39;20080;-54
2021/05/01 05:54:39;;;;;;;26.33;16.80;;;;;;;6.54;99.23;100649.22;3579306;39;20468;-50
2021/05/01 05:57:10;;;;;;;23.58;16.83;;;;;;;6.51;99.31;100649.09;3580940;39;20130;-53
2021/05/01 05:59:39;;;;;;;24.85;16.38;;;;;;;6.65;99.52;100653.06;3581072;39;20054;-50
2021/05/01 06:02:06;;;;;;;27.17;17.65;;;;;;;6.81;98.62;100647.78;3584132;39;20604;-54
2021/05/01 06:04:51;;;;;;;28.60;16.67;;;;;;;7.32;96.79;100658.28;3581959;39;20093;-52
2021/05/01 06:07:33;;;;;;;24.80;15.70;;;;;;;7.32;94.91;100659.97;3582133;39;20067;-54
2021/05/01 06:10:06;;;;;;;26.52;16.15;;;;;;;6.96;97.63;100654.31;3579777;39;20342;-54
2021/05/01 06:12:33;;;;;;;27.05;16.63;;;;;;;6.98;98.70;100650.13;3580535;39;20477;-54
2021/05/01 06:15:05;;;;;;;24.25;16.25;;;;;;;6.95;97.79;100643.25;3582292;39;20045;-52
2021/05/01 06:17:32;;;;;;;27.48;15.95;;;;;;;7.12;97.04;100642.25;3582698;39;20108;-51
2021/05/01 06:20:00;;;;;;;25.65;15.07;;;;;;;7.10;97.11;100646.38;3580577;39;20088;-53
2021/05/01 06:22:27;;;;;;;26.92;16.70;;;;;;;7.06;96.96;100646.22;3579089;39;20431;-53
2021/05/01 06:24:54;;;;;;;28.90;16.67;;;;;;;7.06;98.01;100644.53;3580092;39;20442;-54
2021/05/01 06:27:21;;;;;;;28.77;16.85;;;;;;;6.93;97.60;100644.84;3581998;39;20406;-54
2021/05/01 06:29:49;;;;;;;24.45;16.52;;;;;;;6.93;97.70;100646.53;3580320;39;20398;-53
2021/05/01 06:32:18;;;;;;;23.08;16.88;;;;;;;7.11;98.05;100648.13;3579178;39;20453;-55
2021/05/01 06:34:53;;;;;;;28.10;17.40;;;;;;;7.44;97.65;100654.44;3578722;39;20360;-53
2021/05/01 06:37:21;;;;;;;25.38;16.27;;;;;;;7.93;92.87;100648.59;3580018;39;20088;-55
2021/05/01 06:39:50;;;;;;;24.42;16.17;;;;;;;7.39;95.67;100654.28;3580416;39;20048;-53
2021/05/01 06:42:24;;;;;;;26.00;17.90;;;;;;;7.27;96.26;100658.91;3579982;39;20404;-56
2021/05/01 06:44:56;;;;;;;23.70;16.10;;;;;;;7.25;95.86;100660.50;3580223;39;20099;-52
2021/05/01 06:47:27;;;;;;;26.60;16.65;;;;;;;7.89;93.18;100666.31;3580825;39;20451;-58
2021/05/01 06:50:08;;;;;;;31.90;18.42;;;;;;;7.88;92.80;100656.09;3580179;39;20527;-53
2021/05/01 06:52:42;;;;;;;23.67;16.88;;;;;;;7.78;92.37;100656.56;3579387;39;20292;-53
2021/05/01 06:55:11;;;;;;;27.85;18.10;;;;;;;7.22;95.57;100663.84;3581495;39;20073;-57
2021/05/01 06:57:38;;;;;;;25.73;17.60;;;;;;;7.47;95.50;100664.75;3579528;39;20080;-53
2021/05/01 07:00:08;;;;;;;29.80;19.35;;;;;;;7.54;94.07;100651.44;3580224;39;20122;-53
2021/05/01 07:02:43;;;;;;;30.27;20.05;;;;;;;7.44;95.26;100665.53;3583293;39;20133;-52
2021/05/01 07:05:11;;;;;;;33.00;19.10;;;;;;;8.14;90.85;100655.34;3586461;39;20060;-56
2021/05/01 07:07:38;;;;;;;29.85;18.52;;;;;;;7.99;92.53;100656.47;3585603;39;20096;-55
2021/05/01 07:10:07;;;;;;;33.28;18.95;;;;;;;8.42;90.15;100658.88;3580278;39;20051;-55
2021/05/01 07:12:35;;;;;;;35.38;21.83;;;;;;;8.29;89.77;100654.13;3579492;39;20322;-56
2021/05/01 07:15:05;;;;;;;33.22;21.08;;;;;;;7.77;93.21;100649.75;3581739;39;20044;-55
2021/05/01 07:17:32;;;;;;;31.42;19.77;;;;;;;7.56;93.46;100648.13;3580413;39;20154;-51
2021/05/01 07:20:02;;;;;;;34.85;21.77;;;;;;;7.42;95.45;100649.28;3581586;39;20048;-54
2021/05/01 07:22:29;;;;;;;34.38;20.85;;;;;;;7.56;95.17;100640.47;3582293;39;20053;-55
2021/05/01 07:24:58;;;;;;;31.85;20.67;;;;;;;7.65;94.83;100645.91;3583455;39;20068;-53
2021/05/01 07:27:41;;;;;;;31.48;18.67;;;;;;;8.48;91.02;100648.00;3583015;39;20056;-55
2021/05/01 07:30:08;;;;;;;32.03;19.25;;;;;;;7.93;92.46;100641.81;3580211;39;20096;-55
2021/05/01 07:32:40;;;;;;;28.05;19.23;;;;;;;8.06;91.69;100640.56;3580279;39;20590;-51
2021/05/01 07:35:10;;;;;;;29.95;20.10;;;;;;;8.23;91.60;100649.69;3580658;39;20059;-53
2021/05/01 07:37:39;;;;;;;26.35;18.70;;;;;;;8.61;90.34;100645.03;3583062;39;20061;-53
2021/05/01 07:40:10;;;;;;;27.52;18.98;;;;;;;9.06;86.55;100647.28;3584610;39;20082;-55
2021/05/01 07:42:43;;;;;;;27.58;17.77;;;;;;;8.92;87.14;100649.44;3579304;39;20057;-57
2021/05/01 07:45:11;;;;;;;31.73;17.55;;;;;;;8.89;88.60;100646.78;3580293;39;20093;-57
2021/05/01 07:47:38;;;;;;;26.90;18.25;;;;;;;8.94;87.96;100647.78;3579224;39;20041;-55
2021/05/01 07:50:06;;;;;;;30.35;18.27;;;;;;;9.42;87.10;100640.72;3579822;39;20446;-57
2021/05/01 07:52:35;;;;;;;30.23;17.27;;;;;;;9.89;84.60;100653.13;3578805;39;20109;-53
2021/05/01 07:55:03;;;;;;;26.20;17.92;;;;;;;10.17;80.11;100653.09;3579349;39;20037;-54
2021/05/01 07:57:30;;;;;;;26.73;17.13;;;;;;;9.63;84.64;100648.16;3583147;39;20060;-54
2021/05/01 07:59:56;;;;;;;24.42;16.42;;;;;;;11.00;80.25;100649.16;3582017;39;20060;-58
2021/05/01 08:02:23;;;;;;;25.38;16.98;;;;;;;11.17;77.03;100653.84;3580026;39;20059;-53
2021/05/01 08:05:10;;;;;;;25.48;17.33;;;;;;;10.60;78.96;100654.22;3582879;39;20053;-56
2021/05/01 08:07:38;;;;;;;26.73;16.85;;;;;;;11.70;76.68;100654.16;3582199;39;20064;-51
2021/05/01 08:10:06;;;;;;;23.42;16.90;;;;;;;11.05;76.99;100648.47;3580904;39;20054;-57
2021/05/01 08:12:33;;;;;;;24.88;16.10;;;;;;;11.72;74.63;100646.47;3576797;39;20119;-53
2021/05/01 08:15:00;;;;;;;24.67;16.67;;;;;;;10.76;75.27;100636.66;3581093;39;20653;-55
2021/05/01 08:17:26;;;;;;;25.35;16.50;;;;;;;11.33;76.36;100634.56;3580627;39;20040;-54
2021/05/01 08:19:54;;;;;;;22.05;16.20;;;;;;;10.59;75.19;100634.56;3577389;40;20307;-52
2021/05/01 08:22:21;;;;;;;27.02;16.92;;;;;;;10.89;77.06;100636.13;3577592;39;20088;-53
2021/05/01 08:24:48;;;;;;;22.42;15.15;;;;;;;12.04;72.38;100630.88;3577494;39;20072;-52
2021/05/01 08:27:15;;;;;;;21.30;15.10;;;;;;;11.95;73.84;100635.00;3579566;39;20085;-55
2021/05/01 08:29:42;;;;;;;22.23;14.85;;;;;;;13.31;67.68;100630.38;3576842;39;20057;-55
2021/05/01 08:32:09;;;;;;;21.42;14.40;;;;;;;13.68;67.22;100636.84;3575070;39;20056;-55
2021/05/01 08:34:36;;;;;;;20.63;14.43;;;;;;;13.88;64.14;100635.41;3576718;39;20036;-56
2021/05/01 08:37:03;;;;;;;18.17;13.43;;;;;;;13.67;63.06;100642.84;3582592;39;20072;-54
2021/05/01 08:39:30;;;;;;;22.70;13.90;;;;;;;13.04;66.46;100624.00;3582336;39;20422;-55
2021/05/01 08:41:57;;;;;;;17.45;12.95;;;;;;;13.50;66.85;100634.94;3582648;39;20096;-53
2021/05/01 08:44:23;;;;;;;17.33;12.32;;;;;;;13.80;65.56;100625.88;3582660;39;20079;-54
2021/05/01 08:46:50;;;;;;;16.75;12.95;;;;;;;13.17;64.88;100615.63;3582496;39;20089;-53
2021/05/01 08:49:17;;;;;;;19.27;13.32;;;;;;;13.73;64.87;100607.78;3582348;39;20044;-56
2021/05/01 08:51:44;;;;;;;17.35;12.57;;;;;;;14.39;63.39;100616.16;3581834;39;20415;-53
2021/05/01 08:54:12;;;;;;;15.88;11.73;;;;;;;14.50;61.67;100614.56;3582824;39;20056;-56
2021/05/01 08:56:39;;;;;;;15.88;11.95;;;;;;;13.85;61.72;100613.91;3582550;39;20107;-56
2021/05/01 08:59:06;;;;;;;17.92;11.73;;;;;;;14.61;60.59;100617.25;3581867;39;20072;-52
2021/05/01 09:01:37;;;;;;;14.77;11.55;;;;;;;15.03;60.40;100614.13;3581756;39;20116;-56
2021/05/01 09:04:09;;;;;;;14.95;11.75;;;;;;;13.27;63.03;100608.94;3582141;39;20066;-53
2021/05/01 09:06:37;;;;;;;13.43;9.77;;;;;;;15.46;59.29;100606.59;3582837;39;20064;-59
2021/05/01 09:09:09;;;;;;;14.80;10.15;;;;;;;15.67;55.13;100610.16;3581982;39;20111;-57
2021/05/01 09:11:43;;;;;;;15.52;9.88;;;;;;;14.23;58.40;100601.41;3585316;39;20056;-59
2021/05/01 09:14:30;;;;;;;11.90;9.25;;;;;;;13.92;58.55;100605.41;3586314;39;20051;-59
2021/05/01 09:17:05;;;;;;;14.68;9.13;;;;;;;14.61;58.16;100604.38;3582350;39;20096;-54
2021/05/01 09:19:41;;;;;;;14.52;10.60;;;;;;;13.81;62.64;100602.72;3583249;39;20080;-51
2021/05/01 09:22:12;;;;;;;14.20;10.70;;;;;;;14.35;62.16;100608.41;3583915;39;20080;-56
2021/05/01 09:24:40;;;;;;;15.95;11.38;;;;;;;13.81;61.47;100607.00;3584043;39;20033;-53
2021/05/01 09:27:07;;;;;;;13.02;10.02;;;;;;;13.06;62.90;100604.31;3583337;39;20088;-54
2021/05/01 09:29:37;;;;;;;14.40;11.20;;;;;;;13.71;62.85;100608.59;3583835;39;20060;-56
2021/05/01 09:32:21;;;;;;;14.00;10.20;;;;;;;14.09;61.39;100601.28;3580384;39;20433;-58
2021/05/01 09:34:53;;;;;;;12.05;9.52;;;;;;;13.69;59.85;100603.44;3578272;39;20327;-54
2021/05/01 09:37:23;;;;;;;11.32;9.77;;;;;;;13.40;61.05;100610.81;3579924;39;20045;-52
2021/05/01 09:39:55;;;;;;;14.40;10.35;;;;;;;13.81;59.27;100602.72;3581225;39;20056;-59
2021/05/01 09:42:23;;;;;;;15.15;9.93;;;;;;;14.36;60.26;100602.41;3580244;39;20112;-53
2021/05/01 09:45:16;;;;;;;15.18;9.57;;;;;;;14.36;60.03;100604.97;3580402;39;20064;-52
2021/05/01 09:47:50;;;;;;;11.35;9.40;;;;;;;13.12;62.02;100598.38;3579375;39;20459;-56
2021/05/01 09:50:21;;;;;;;13.15;9.57;;;;;;;12.94;63.03;100597.31;3580079;39;20408;-55
2021/05/01 09:53:00;;;;;;;12.65;9.80;;;;;;;12.29;64.84;100591.09;3580428;39;20158;-54
2021/05/01 09:55:54;;;;;;;13.35;9.35;;;;;;;12.51;63.81;100589.75;3579623;39;20049;-58
2021/05/01 09:58:27;;;;;;;12.32;9.38;;;;;;;12.08;64.24;100589.91;3577805;39;20103;-53
2021/05/01 10:01:16;;;;;;;13.43;9.80;;;;;;;12.03;63.18;100583.81;3577721;39;20493;-55
2021/05/01 10:03:43;;;;;;;12.65;9.38;;;;;;;11.99;66.02;100576.91;3581518;39;20048;-52
2021/05/01 10:06:14;;;;;;;11.40;9.23;;;;;;;12.08;61.57;100582.22;3580467;39;20427;-56
2021/05/01 10:08:42;;;;;;;10.80;9.57;;;;;;;12.31;61.99;100592.88;3579200;39;20049;-53
2021/05/01 10:11:12;;;;;;;11.55;8.75;;;;;;;14.14;57.65;100598.75;3580911;39;20096;-55
2021/05/01 10:13:54;;;;;;;8.43;7.37;;;;;;;16.48;51.84;100602.53;3581562;39;20053;-53
2021/05/01 10:16:23;;;;;;;11.13;8.05;;;;;;;17.47;50.15;100597.22;3579259;39;20064;-56
2021/05/01 10:19:09;;;;;;;9.75;8.07;;;;;;;17.91;45.71;100603.94;3582117;39;20104;-57
2021/05/01 10:21:37;;;;;;;13.15;8.23;;;;;;;16.41;47.94;100606.00;3581774;39;20037;-53
2021/05/01 10:24:05;;;;;;;9.00;7.57;;;;;;;18.13;45.44;100598.63;3580642;39;20072;-55
2021/05/01 10:26:51;;;;;;;10.00;8.20;;;;;;;17.98;47.43;100602.16;3582664;39;20508;-56
2021/05/01 10:29:29;;;;;;;8.18;7.22;;;;;;;18.85;44.61;100601.50;3580454;39;20072;-52
2021/05/01 10:31:58;;;;;;;9.15;7.72;;;;;;;17.51;46.91;100593.72;3583057;39;20051;-51
2021/05/01 10:34:27;;;;;;;8.48;7.20;;;;;;;17.54;46.12;100579.91;3582096;39;20056;-51
2021/05/01 10:36:58;;;;;;;8.30;6.78;;;;;;;17.96;46.23;100581.44;3583179;39;20671;-50
2021/05/01 10:39:25;;;;;;;9.02;6.97;;;;;;;19.56;41.51;100576.47;3583290;39;20088;-55
2021/05/01 10:42:00;;;;;;;7.93;7.13;;;;;;;21.92;36.21;100577.53;3583262;39;20719;-54
2021/05/01 10:44:27;;;;;;;8.80;7.93;;;;;;;19.16;39.48;100564.84;3586112;39;20045;-54
2021/05/01 10:47:13;;;;;;;8.63;6.78;;;;;;;19.31;39.53;100562.91;3585912;39;20102;-53
2021/05/01 10:50:18;;;;;;;10.77;7.20;;;;;;;17.54;41.88;100559.19;3579408;39;20043;-55
2021/05/01 10:52:45;;;;;;;10.07;7.20;;;;;;;15.46;46.71;100556.69;3578695;39;20045;-52
2021/05/01 10:55:12;;;;;;;7.40;6.50;;;;;;;16.45;46.41;100563.75;3579946;39;20046;-54
2021/05/01 10:57:39;;;;;;;12.75;7.10;;;;;;;15.68;45.93;100557.66;3579058;39;20083;-50
2021/05/01 11:00:09;;;;;;;7.50;6.80;;;;;;;15.74;46.37;100560.25;3581171;39;20056;-56
2021/05/01 11:02:39;;;;;;;10.05;7.57;;;;;;;15.82;46.01;100562.88;3583653;39;20448;-52
2021/05/01 11:05:11;;;;;;;8.60;7.15;;;;;;;15.89;47.28;100575.78;3583352;39;20041;-54
2021/05/01 11:07:52;;;;;;;7.88;7.07;;;;;;;15.59;46.44;100584.28;3583617;39;20048;-51
2021/05/01 11:10:19;;;;;;;9.90;7.35;;;;;;;15.21;48.31;100591.88;3580527;39;20064;-56
2021/05/01 11:12:51;;;;;;;8.02;7.22;;;;;;;16.17;45.89;100593.91;3582919;39;20059;-52
2021/05/01 11:15:21;;;;;;;8.60;7.72;;;;;;;15.29;44.83;100597.91;3580542;39;20055;-54
2021/05/01 11:17:59;;;;;;;8.13;6.63;;;;;;;15.60;47.93;100596.31;3582902;39;20048;-55
2021/05/01 11:20:29;;;;;;;7.65;6.43;;;;;;;15.21;46.33;100587.56;3583227;39;20048;-54
2021/05/01 11:22:56;;;;;;;9.15;7.30;;;;;;;15.63;47.68;100583.44;3587814;39;20089;-56